Time;durP1;ratioP1;P1;durP2;ratioP2;P2;SDS_P1;SDS_P2;PMS_P1;PMS_P2;Temp;Humidity;BMP_temperature;BMP_pressure;BME280_temperature;BME280_humidity;BME280_pressure;Samples;Min_cycle;Max_cycle;Signal;HPM_P1;HPM_P2
2023/03/12 00:00:47;;;;;;;16.40;8.30;;;;;;;13.73;47.86;98414.59;273095;1276;22262;-76
2023/03/12 00:07:10;;;;;;;13.80;7.80;;;;;;;12.99;48.39;98428.21;273209;1276;22809;-76
2023/03/12 00:13:12;;;;;;;17.60;8.60;;;;;;;13.14;47.80;98434.74;273202;1280;22465;-80
2023/03/12 00:19:15;;;;;;;12.40;6.80;;;;;;;12.70;48.26;98448.77;273204;1276;22279;-82
2023/03/12 00:25:20;;;;;;;12.30;7.10;;;;;;;12.23;48.44;98455.38;273237;1277;22170;-81
2023/03/12 00:31:26;;;;;;;15.20;8.40;;;;;;;13.22;47.22;98457.81;273200;1283;22986;-80
2023/03/12 00:37:31;;;;;;;14.30;8.60;;;;;;;13.03;47.45;98460.14;273232;1276;22213;-80
2023/03/12 00:43:35;;;;;;;13.60;7.50;;;;;;;13.07;47.12;98465.87;273243;1277;22086;-80
2023/03/12 00:49:38;;;;;;;13.50;7.70;;;;;;;13.34;46.88;98467.53;273176;1280;22419;-80
2023/03/12 00:55:41;;;;;;;13.40;7.50;;;;;;;13.59;46.37;98465.15;273195;1276;22479;-80
2023/03/12 01:01:45;;;;;;;14.80;6.70;;;;;;;13.33;46.61;98474.64;273263;1283;22364;-83
2023/03/12 01:07:48;;;;;;;14.20;7.20;;;;;;;12.99;47.16;98473.77;273178;1280;22257;-85
2023/03/12 01:13:51;;;;;;;13.30;7.90;;;;;;;12.51;47.81;98479.20;273160;1276;23064;-79
2023/03/12 01:19:54;;;;;;;14.70;8.70;;;;;;;12.42;48.03;98484.70;273203;1276;22435;-79
2023/03/12 01:25:58;;;;;;;13.30;7.70;;;;;;;12.24;48.17;98487.48;273287;1280;22450;-79
2023/03/12 01:32:01;;;;;;;13.60;7.80;;;;;;;12.37;48.07;98492.52;273272;1277;22252;-80
2023/03/12 01:38:06;;;;;;;13.40;8.00;;;;;;;12.46;48.13;98489.10;273271;1276;23053;-80
2023/03/12 01:44:13;;;;;;;17.60;9.20;;;;;;;12.77;47.93;98485.94;273245;1276;22156;-81
2023/03/12 01:50:16;;;;;;;17.30;9.60;;;;;;;12.46;48.46;98486.23;273258;1276;23058;-81
2023/03/12 01:56:20;;;;;;;18.70;10.30;;;;;;;12.10;48.90;98489.63;273184;1283;22248;-82
2023/03/12 02:02:27;;;;;;;16.90;8.80;;;;;;;12.13;48.83;98495.04;273215;1278;22373;-82
2023/03/12 02:08:34;;;;;;;14.70;8.80;;;;;;;12.15;48.74;98496.30;273247;1278;22194;-81
2023/03/12 02:14:38;;;;;;;14.40;8.50;;;;;;;12.13;48.75;98500.93;273161;1276;22237;-80
2023/03/12 02:20:52;;;;;;;15.70;9.10;;;;;;;11.94;49.12;98508.31;273288;1283;22337;-80
2023/03/12 02:26:55;;;;;;;13.90;8.60;;;;;;;11.88;49.19;98516.34;273243;1276;22120;-82
2023/03/12 02:33:01;;;;;;;14.30;8.40;;;;;;;12.41;48.32;98522.27;273290;1283;22404;-83
2023/03/12 02:39:04;;;;;;;14.90;8.40;;;;;;;11.95;48.95;98530.63;273377;1283;22084;-81
2023/03/12 02:45:08;;;;;;;19.30;8.90;;;;;;;12.24;48.66;98537.04;273335;1283;22175;-83
2023/03/12 02:51:11;;;;;;;12.10;7.30;;;;;;;12.56;48.05;98541.76;273210;1279;22354;-82
2023/03/12 02:57:14;;;;;;;13.60;7.20;;;;;;;12.26;48.09;98546.82;273307;1283;22337;-82
2023/03/12 03:03:18;;;;;;;14.60;8.00;;;;;;;12.36;47.90;98550.52;273242;1277;22680;-82
2023/03/12 03:09:21;;;;;;;14.60;8.30;;;;;;;12.39;48.20;98562.52;273246;1283;22492;-82
2023/03/12 03:15:25;;;;;;;13.50;8.00;;;;;;;12.42;47.92;98568.20;273238;1283;22381;-83
2023/03/12 03:21:28;;;;;;;14.20;7.80;;;;;;;12.19;47.58;98574.37;273294;1283;22393;-83
2023/03/12 03:27:32;;;;;;;11.00;6.30;;;;;;;12.10;47.25;98585.83;273214;1283;22224;-83
2023/03/12 03:33:42;;;;;;;8.70;5.40;;;;;;;11.97;46.74;98595.95;273221;1276;22363;-81
2023/03/12 03:39:47;;;;;;;8.00;4.90;;;;;;;12.50;45.79;98604.41;273258;1283;22224;-80
2023/03/12 03:46:03;;;;;;;10.90;5.80;;;;;;;12.54;45.48;98608.13;273258;1283;22374;-80
2023/03/12 03:52:09;;;;;;;9.30;5.10;;;;;;;12.46;46.03;98611.63;273246;1283;23312;-79
2023/03/12 03:58:15;;;;;;;11.80;5.80;;;;;;;12.97;45.50;98611.96;273244;1277;22228;-79
2023/03/12 04:04:18;;;;;;;10.80;6.10;;;;;;;13.26;45.24;98616.02;273179;1276;22415;-79
2023/03/12 04:10:23;;;;;;;10.80;5.60;;;;;;;13.49;45.00;98623.69;273252;1280;22373;-80
2023/03/12 04:16:26;;;;;;;10.60;5.30;;;;;;;13.73;44.84;98623.69;273142;1275;22360;-77
2023/03/12 04:22:30;;;;;;;9.30;5.00;;;;;;;13.40;44.88;98624.42;273222;1278;22197;-78
2023/03/12 04:28:34;;;;;;;9.10;5.60;;;;;;;13.21;45.32;98627.43;273245;1280;22400;-78
2023/03/12 04:34:38;;;;;;;9.30;4.90;;;;;;;13.24;45.16;98630.27;273234;1283;22362;-88
2023/03/12 04:40:59;;;;;;;10.00;5.20;;;;;;;13.09;45.39;98631.88;273241;1283;23099;-86
2023/03/12 04:47:04;;;;;;;10.90;5.40;;;;;;;12.80;45.61;98632.74;273238;1278;22819;-86
2023/03/12 04:53:07;;;;;;;11.10;6.20;;;;;;;12.32;46.09;98638.08;273222;1283;22636;-84
2023/03/12 04:59:13;;;;;;;11.70;5.60;;;;;;;12.40;45.81;98639.45;273373;1283;22362;-83
2023/03/12 05:05:17;;;;;;;8.50;5.20;;;;;;;12.42;45.66;98644.41;273396;1283;22437;-83
2023/03/12 05:11:20;;;;;;;9.20;4.80;;;;;;;12.42;45.40;98646.95;273261;1283;22974;-82
2023/03/12 05:17:24;;;;;;;8.60;4.80;;;;;;;12.44;45.31;98643.49;273454;1282;22128;-81
2023/03/12 05:23:28;;;;;;;10.50;5.40;;;;;;;12.13;45.63;98650.99;273344;1283;22311;-78
2023/03/12 05:29:34;;;;;;;11.10;5.60;;;;;;;12.81;44.82;98654.55;273174;1277;22358;-80
2023/03/12 05:35:37;;;;;;;11.10;5.60;;;;;;;12.92;44.54;98659.73;273212;1283;22240;-85
2023/03/12 05:41:41;;;;;;;15.00;7.10;;;;;;;12.88;44.45;98666.65;273148;1283;22084;-86
2023/03/12 05:47:51;;;;;;;11.60;5.50;;;;;;;12.78;44.69;98672.17;273190;1283;22101;-87
2023/03/12 05:53:54;;;;;;;9.20;4.50;;;;;;;13.01;44.22;98679.20;273272;1283;22287;-86
2023/03/12 05:59:57;;;;;;;9.00;4.90;;;;;;;13.01;43.96;98688.41;273217;1283;22340;-87
2023/03/12 06:06:00;;;;;;;8.40;5.10;;;;;;;12.93;43.76;98699.27;273224;1278;22301;-86
2023/03/12 06:12:09;;;;;;;8.50;5.00;;;;;;;12.95;43.59;98706.77;273219;1283;22482;-90
2023/03/12 06:18:15;;;;;;;10.50;5.30;;;;;;;13.50;42.86;98710.27;273185;1283;22779;-87
2023/03/12 06:24:19;;;;;;;9.50;5.50;;;;;;;13.47;42.43;98720.60;273208;1282;22446;-81
2023/03/12 06:30:29;;;;;;;10.10;5.70;;;;;;;13.15;42.67;98726.39;273281;1283;22440;-83
2023/03/12 06:36:32;;;;;;;9.70;5.10;;;;;;;13.08;42.72;98727.45;273273;1283;23305;-82
2023/03/12 06:42:38;;;;;;;9.70;5.20;;;;;;;13.25;42.27;98729.88;273336;1283;22172;-83
2023/03/12 06:48:42;;;;;;;8.70;4.90;;;;;;;13.58;41.76;98736.31;273410;1281;22109;-82
2023/03/12 06:54:45;;;;;;;7.70;4.70;;;;;;;14.33;40.61;98741.10;273236;1283;22315;-82
2023/03/12 07:00:48;;;;;;;7.20;4.30;;;;;;;14.46;40.52;98748.26;273248;1283;22369;-87
2023/03/12 07:06:54;;;;;;;7.50;4.50;;;;;;;14.85;39.90;98746.08;273214;1276;22379;-76
2023/03/12 07:12:59;;;;;;;8.70;4.70;;;;;;;14.94;39.80;98750.61;273214;1276;22922;-75
2023/03/12 07:19:02;;;;;;;7.90;4.10;;;;;;;14.50;40.13;98757.12;273261;1277;22913;-74
2023/03/12 07:25:06;;;;;;;6.40;4.30;;;;;;;14.43;40.02;98755.77;273206;1280;22350;-74
2023/03/12 07:31:13;;;;;;;6.80;3.60;;;;;;;14.10;40.15;98754.30;273257;1276;22385;-74
2023/03/12 07:37:16;;;;;;;6.40;3.70;;;;;;;14.06;40.16;98751.23;273177;1276;23306;-73
2023/03/12 07:43:19;;;;;;;5.90;3.20;;;;;;;14.49;39.54;98750.00;273184;1280;22936;-74
2023/03/12 07:49:26;;;;;;;5.90;3.00;;;;;;;14.52;39.54;98750.98;273099;1278;142766;-74
2023/03/12 07:55:30;;;;;;;5.70;2.70;;;;;;;15.04;38.85;98750.09;273216;1275;22209;-73
2023/03/12 08:01:33;;;;;;;4.80;2.70;;;;;;;15.18;38.22;98749.65;273272;1268;22112;-75
2023/03/12 08:07:37;;;;;;;4.20;2.40;;;;;;;15.37;38.10;98754.73;273132;1280;22443;-79
2023/03/12 08:13:40;;;;;;;3.80;2.30;;;;;;;16.07;37.36;98747.84;273293;1275;22374;-75
2023/03/12 08:19:43;;;;;;;2.90;1.80;;;;;;;15.37;37.91;98751.26;273181;1278;22362;-74
2023/03/12 08:25:48;;;;;;;3.90;2.20;;;;;;;15.51;37.86;98751.50;273252;1278;22530;-74
2023/03/12 08:31:51;;;;;;;5.00;2.00;;;;;;;15.14;37.90;98752.86;273297;1283;22350;-75
2023/03/12 08:38:07;;;;;;;5.50;2.20;;;;;;;14.78;38.23;98756.60;273210;1278;22210;-75
2023/03/12 08:44:10;;;;;;;3.60;1.70;;;;;;;14.83;37.66;98761.46;273253;1278;22338;-75
2023/03/12 08:50:15;;;;;;;3.50;1.80;;;;;;;15.02;37.65;98771.95;273196;1278;22996;-76
2023/03/12 08:56:18;;;;;;;4.30;1.30;;;;;;;14.76;37.50;98782.63;273205;1276;22160;-76
2023/03/12 09:02:21;;;;;;;2.10;1.40;;;;;;;14.66;37.62;98784.12;273223;1280;22233;-76
2023/03/12 09:08:25;;;;;;;4.50;1.70;;;;;;;14.12;37.90;98788.52;273144;1278;22344;-76
2023/03/12 09:14:28;;;;;;;4.20;1.60;;;;;;;14.14;38.06;98782.81;273261;1280;22426;-79
2023/03/12 09:20:51;;;;;;;2.90;1.40;;;;;;;14.39;38.68;98774.13;273244;1283;22110;-78
2023/03/12 09:26:55;;;;;;;3.30;1.50;;;;;;;14.53;38.22;98772.08;273305;1282;22136;-77
2023/03/12 09:32:58;;;;;;;2.60;1.50;;;;;;;14.83;37.79;98770.80;273287;1283;22384;-78
2023/03/12 09:39:01;;;;;;;4.60;1.50;;;;;;;14.91;38.18;98766.45;273257;1278;22365;-78
2023/03/12 09:45:06;;;;;;;4.00;1.60;;;;;;;14.67;37.82;98772.29;273251;1279;22492;-79
2023/03/12 09:51:19;;;;;;;3.20;1.60;;;;;;;15.05;37.82;98768.73;273170;1278;22195;-81
2023/03/12 09:57:24;;;;;;;4.10;1.90;;;;;;;14.70;38.11;98774.44;273268;1278;22189;-78
2023/03/12 10:03:51;;;;;;;4.20;1.60;;;;;;;15.12;37.89;98767.02;273243;1281;22338;-78
2023/03/12 10:09:59;;;;;;;3.80;1.80;;;;;;;15.15;37.55;98782.88;273271;1283;22212;-79
2023/03/12 10:16:34;;;;;;;3.70;2.10;;;;;;;14.56;38.70;98781.84;273279;1281;22168;-78
2023/03/12 10:22:49;;;;;;;5.70;2.00;;;;;;;14.81;38.47;98774.91;273276;1280;23263;-78
2023/03/12 10:29:01;;;;;;;5.10;2.70;;;;;;;15.05;37.83;98787.95;273284;1278;22936;-79
2023/03/12 10:35:17;;;;;;;4.00;2.50;;;;;;;14.93;37.96;98777.64;273218;1278;22404;-80
2023/03/12 10:41:27;;;;;;;4.90;2.60;;;;;;;15.36;38.13;98775.20;273242;1278;23125;-80
2023/03/12 10:47:39;;;;;;;5.50;2.80;;;;;;;15.80;37.36;98777.28;273241;1276;22161;-81
2023/03/12 10:53:46;;;;;;;6.80;2.40;;;;;;;15.59;37.79;98778.27;273222;1276;22148;-80
2023/03/12 11:00:06;;;;;;;5.00;2.70;;;;;;;16.41;37.14;98766.28;273116;1281;22263;-76
2023/03/12 11:06:20;;;;;;;5.20;2.50;;;;;;;16.04;37.03;98783.11;273064;1278;22397;-77
2023/03/12 11:12:29;;;;;;;7.90;2.80;;;;;;;16.59;36.70;98778.61;273003;1278;22255;-76
2023/03/12 11:18:34;;;;;;;5.30;2.50;;;;;;;17.01;36.39;98784.00;273005;1277;22235;-76
2023/03/12 11:24:58;;;;;;;5.10;2.70;;;;;;;16.44;36.38;98795.27;273094;1276;22859;-76
2023/03/12 11:31:01;;;;;;;5.50;2.70;;;;;;;17.51;35.20;98785.42;273007;1278;22314;-77
2023/03/12 11:37:30;;;;;;;7.90;2.90;;;;;;;17.74;34.85;98784.58;273036;1281;22411;-77
2023/03/12 11:43:54;;;;;;;5.50;2.50;;;;;;;17.43;35.04;98785.94;273046;1277;22187;-77
2023/03/12 11:50:00;;;;;;;4.80;2.80;;;;;;;16.83;35.59;98796.38;273187;1279;22384;-78
2023/03/12 11:56:15;;;;;;;6.30;2.80;;;;;;;18.09;35.00;98792.15;273203;1278;22116;-77
2023/03/12 12:02:56;;;;;;;6.00;3.10;;;;;;;17.90;34.99;98788.39;273207;1276;22641;-77
2023/03/12 12:09:27;;;;;;;5.50;3.10;;;;;;;18.08;34.54;98799.47;273208;1281;23061;-77
2023/03/12 12:15:49;;;;;;;6.20;3.10;;;;;;;17.55;35.12;98792.27;273079;1279;22495;-78
2023/03/12 12:22:16;;;;;;;7.30;3.60;;;;;;;17.60;35.29;98788.34;273253;1276;22699;-78
2023/03/12 12:28:47;;;;;;;5.60;3.20;;;;;;;17.89;35.25;98788.97;273256;1281;22114;-77
2023/03/12 12:35:01;;;;;;;8.30;3.50;;;;;;;18.53;34.76;98790.45;273177;1280;22300;-77
2023/03/12 12:41:15;;;;;;;6.40;3.50;;;;;;;18.16;34.41;98794.25;273233;1281;22531;-76
2023/03/12 12:47:24;;;;;;;5.30;2.90;;;;;;;17.27;34.70;98797.79;273190;1276;22462;-75
2023/03/12 12:53:47;;;;;;;5.10;3.20;;;;;;;17.61;34.70;98800.17;273251;1277;22319;-77
2023/03/12 13:00:05;;;;;;;7.10;3.60;;;;;;;18.06;35.40;98799.92;273215;1277;22378;-81
2023/03/12 13:06:10;;;;;;;5.90;3.00;;;;;;;18.72;34.81;98796.44;273236;1278;22189;-83
2023/03/12 13:12:23;;;;;;;7.10;3.20;;;;;;;17.89;35.25;98802.45;273225;1283;22130;-83
2023/03/12 13:18:30;;;;;;;5.60;3.10;;;;;;;17.78;35.50;98799.77;273223;1283;22105;-84
2023/03/12 13:24:46;;;;;;;5.00;2.70;;;;;;;17.71;35.11;98798.23;273259;1283;22373;-84
2023/03/12 13:30:52;;;;;;;7.30;3.60;;;;;;;16.73;35.78;98799.98;273276;1280;22907;-83
2023/03/12 13:37:03;;;;;;;6.10;3.10;;;;;;;17.10;35.59;98792.19;273233;1283;22398;-84
2023/03/12 13:43:12;;;;;;;6.40;3.20;;;;;;;17.21;35.45;98788.08;273297;1282;22397;-83
2023/03/12 13:49:17;;;;;;;4.50;3.10;;;;;;;17.12;36.09;98793.46;273260;1283;23035;-83
2023/03/12 13:55:24;;;;;;;6.00;3.20;;;;;;;17.33;35.29;98800.08;273189;1283;23208;-83
2023/03/12 14:01:44;;;;;;;5.50;2.70;;;;;;;17.51;34.71;98790.34;273267;1283;23111;-82
2023/03/12 14:07:47;;;;;;;6.20;2.80;;;;;;;17.67;34.06;98787.00;273185;1283;22318;-83
2023/03/12 14:14:07;;;;;;;4.90;2.30;;;;;;;17.53;34.09;98784.30;273248;1283;22100;-83
2023/03/12 14:20:15;;;;;;;4.20;2.10;;;;;;;17.92;33.84;98779.45;273273;1283;22384;-83
2023/03/12 14:26:24;;;;;;;6.90;2.60;;;;;;;17.65;33.65;98791.05;273162;1280;22908;-83
2023/03/12 14:32:30;;;;;;;5.30;2.50;;;;;;;17.98;33.79;98787.55;273202;1283;22993;-84
2023/03/12 14:38:36;;;;;;;5.00;2.30;;;;;;;18.26;33.51;98788.17;273133;1283;22330;-76
2023/03/12 14:44:39;;;;;;;5.70;2.30;;;;;;;17.82;32.79;98796.31;273207;1278;22211;-77
2023/03/12 14:50:42;;;;;;;3.50;2.10;;;;;;;18.02;32.72;98794.59;273243;1277;22193;-77
2023/03/12 14:56:45;;;;;;;4.20;2.10;;;;;;;18.44;32.33;98800.59;273205;1280;22390;-78
2023/03/12 15:02:51;;;;;;;5.90;2.30;;;;;;;18.25;32.63;98806.21;273248;1280;22179;-77
2023/03/12 15:08:55;;;;;;;3.70;2.00;;;;;;;18.92;32.33;98811.55;273208;1276;22924;-76
2023/03/12 15:15:06;;;;;;;6.00;2.30;;;;;;;18.67;32.36;98809.34;273238;1278;22229;-75
2023/03/12 15:21:09;;;;;;;5.40;2.30;;;;;;;18.58;32.36;98808.73;273120;1284;22364;-76
2023/03/12 15:27:24;;;;;;;7.00;2.00;;;;;;;19.13;31.92;98811.92;273143;1277;22731;-77
2023/03/12 15:33:27;;;;;;;5.30;2.20;;;;;;;18.93;31.67;98818.83;273148;1282;22417;-76
2023/03/12 15:39:33;;;;;;;4.50;2.00;;;;;;;18.74;32.10;98817.11;273151;1276;22409;-76
2023/03/12 15:45:38;;;;;;;5.10;2.10;;;;;;;18.66;31.84;98809.09;273170;1280;22216;-76
2023/03/12 15:51:41;;;;;;;4.30;2.00;;;;;;;19.04;31.38;98812.88;273148;1280;23036;-76
2023/03/12 15:57:52;;;;;;;4.20;1.80;;;;;;;18.76;31.38;98820.41;273190;1277;22112;-77
2023/03/12 16:03:55;;;;;;;3.60;1.90;;;;;;;18.43;31.63;98819.15;273087;1282;22183;-76
2023/03/12 16:09:58;;;;;;;6.10;2.10;;;;;;;18.79;31.68;98817.73;273228;1277;22925;-76
2023/03/12 16:16:01;;;;;;;5.30;2.10;;;;;;;18.97;31.49;98821.21;273216;1260;22107;-76
2023/03/12 16:22:04;;;;;;;4.80;2.20;;;;;;;18.70;31.69;98825.33;273208;1277;22821;-78
2023/03/12 16:28:10;;;;;;;4.20;2.30;;;;;;;18.46;32.12;98829.41;273166;1278;22943;-78
2023/03/12 16:34:16;;;;;;;5.30;2.30;;;;;;;18.39;32.46;98835.20;273150;1276;22559;-78
2023/03/12 16:40:23;;;;;;;4.90;2.70;;;;;;;18.18;32.61;98841.06;273184;1276;23796;-78
2023/03/12 16:46:35;;;;;;;5.20;2.60;;;;;;;17.95;32.98;98838.40;273166;1276;23120;-77
2023/03/12 16:52:40;;;;;;;6.90;2.70;;;;;;;18.05;33.17;98831.47;273125;1280;22185;-77
2023/03/12 16:58:48;;;;;;;4.90;2.30;;;;;;;18.24;33.29;98833.94;273194;1283;22259;-77
2023/03/12 17:04:52;;;;;;;4.60;2.40;;;;;;;17.76;33.45;98839.09;273152;1277;22346;-78
2023/03/12 17:10:55;;;;;;;6.60;2.80;;;;;;;17.88;32.93;98846.57;273168;1276;22957;-79
2023/03/12 17:16:58;;;;;;;4.90;2.60;;;;;;;17.97;32.87;98860.75;273124;1280;22108;-78
2023/03/12 17:23:03;;;;;;;6.10;3.00;;;;;;;18.14;32.83;98864.55;273143;1276;22354;-75
2023/03/12 17:29:06;;;;;;;5.10;2.70;;;;;;;18.15;33.01;98864.16;273083;1280;23069;-75
2023/03/12 17:35:09;;;;;;;5.40;2.80;;;;;;;18.18;32.78;98862.45;273093;1277;22441;-75
2023/03/12 17:41:12;;;;;;;6.80;3.30;;;;;;;18.04;33.19;98853.58;273088;1276;22838;-75
2023/03/12 17:47:28;;;;;;;9.20;4.10;;;;;;;17.87;33.51;98849.95;273119;1276;22043;-78
2023/03/12 17:53:32;;;;;;;11.40;4.80;;;;;;;17.98;33.86;98844.46;273110;1276;22808;-78
2023/03/12 17:59:40;;;;;;;10.90;4.60;;;;;;;17.77;34.24;98844.31;273195;1280;22363;-82
2023/03/12 18:05:44;;;;;;;10.30;4.20;;;;;;;17.34;34.69;98851.81;273252;1277;22786;-82
2023/03/12 18:11:49;;;;;;;10.10;5.00;;;;;;;17.51;34.70;98843.30;273217;1280;22965;-82
2023/03/12 18:17:55;;;;;;;9.60;4.20;;;;;;;17.34;35.16;98838.09;273149;1283;22372;-77
2023/03/12 18:23:58;;;;;;;9.30;4.30;;;;;;;17.43;35.38;98847.92;273130;1276;22309;-77
2023/03/12 18:30:17;;;;;;;10.50;4.40;;;;;;;17.33;35.59;98839.22;273210;1277;22425;-77
2023/03/12 18:36:21;;;;;;;9.20;4.30;;;;;;;17.10;36.16;98832.00;273153;1275;22245;-77
2023/03/12 18:42:24;;;;;;;9.50;4.60;;;;;;;17.09;36.49;98829.79;273157;1280;23076;-77
2023/03/12 18:48:27;;;;;;;9.30;4.30;;;;;;;16.90;36.74;98828.44;273087;1275;22212;-76
2023/03/12 18:54:32;;;;;;;9.60;4.40;;;;;;;16.85;36.91;98828.09;273172;1277;22982;-75
2023/03/12 19:00:35;;;;;;;9.30;4.30;;;;;;;16.95;36.67;98834.67;273150;1276;22335;-75
2023/03/12 19:06:39;;;;;;;9.00;4.30;;;;;;;17.05;36.98;98836.31;273139;1276;22189;-75
2023/03/12 19:12:53;;;;;;;12.50;4.60;;;;;;;17.10;36.97;98839.18;273066;1275;22711;-76
2023/03/12 19:18:57;;;;;;;7.20;3.70;;;;;;;16.93;36.80;98839.30;273055;1276;22322;-76
2023/03/12 19:25:05;;;;;;;9.10;4.20;;;;;;;16.56;37.00;98831.98;273063;1276;22174;-76
2023/03/12 19:31:12;;;;;;;8.60;3.60;;;;;;;16.39;36.56;98827.79;273106;1276;22399;-76
2023/03/12 19:37:17;;;;;;;6.60;3.50;;;;;;;16.53;35.70;98832.32;273154;1276;22348;-76
2023/03/12 19:43:20;;;;;;;8.70;3.60;;;;;;;16.47;35.43;98834.66;273188;1280;22187;-76
2023/03/12 19:49:23;;;;;;;8.10;3.80;;;;;;;16.77;35.09;98838.32;273051;1280;150094;-76
2023/03/12 19:55:27;;;;;;;7.20;3.90;;;;;;;16.84;35.21;98838.24;273201;1276;22422;-82
2023/03/12 20:01:30;;;;;;;6.80;3.10;;;;;;;16.67;35.72;98833.69;273132;1280;22235;-78
2023/03/12 20:07:36;;;;;;;7.50;4.10;;;;;;;16.66;35.44;98827.66;273258;1276;22507;-87
2023/03/12 20:13:40;;;;;;;9.60;4.30;;;;;;;16.78;35.37;98832.99;273140;1278;22430;-77
2023/03/12 20:19:50;;;;;;;11.70;5.10;;;;;;;16.84;35.24;98826.34;273245;1276;22328;-77
2023/03/12 20:26:05;;;;;;;13.00;5.80;;;;;;;16.67;35.56;98827.77;273186;1276;22250;-89
2023/03/12 20:32:09;;;;;;;13.40;6.60;;;;;;;16.68;35.48;98821.45;273261;1276;22457;-79
2023/03/12 20:38:16;;;;;;;;;;;;;;;16.73;35.27;98808.85;273223;1276;22457;-80
2023/03/12 20:44:22;;;;;;;16.90;7.70;;;;;;;16.72;35.15;98813.10;273302;1276;23574;-79
2023/03/12 20:50:28;;;;;;;15.50;7.90;;;;;;;16.79;35.15;98804.71;273279;1276;22243;-82
2023/03/12 20:56:34;;;;;;;16.70;7.20;;;;;;;16.85;35.07;98790.39;273165;1277;22240;-83
2023/03/12 21:02:41;;;;;;;16.00;7.20;;;;;;;16.76;35.09;98776.65;273157;1280;22597;-83
2023/03/12 21:08:45;;;;;;;16.60;8.00;;;;;;;16.91;35.02;98769.19;273263;1276;22391;-81
2023/03/12 21:14:48;;;;;;;16.20;8.20;;;;;;;16.84;35.15;98759.77;273282;1277;22147;-83
2023/03/12 21:20:53;;;;;;;16.90;8.80;;;;;;;16.84;35.13;98744.02;273161;1278;22349;-84
2023/03/12 21:26:57;;;;;;;17.00;8.10;;;;;;;16.90;35.12;98747.15;273193;1283;22346;-85
2023/03/12 21:33:01;;;;;;;17.90;8.00;;;;;;;16.81;35.11;98740.08;273235;1283;22451;-75
2023/03/12 21:39:10;;;;;;;14.50;6.90;;;;;;;16.83;35.22;98735.35;273236;1276;22136;-89
2023/03/12 21:45:34;;;;;;;16.10;7.50;;;;;;;16.95;34.94;98725.68;273094;1283;22141;-87
2023/03/12 21:51:45;;;;;;;17.50;7.20;;;;;;;16.99;34.66;98719.29;273181;1283;22382;-88
2023/03/12 21:57:56;;;;;;;15.20;7.20;;;;;;;17.01;34.68;98711.09;273570;1261;22116;-92
2023/03/12 22:04:53;;;;;;;13.70;6.10;;;;;;;17.09;34.47;98709.52;274282;1257;22847;-88
2023/03/12 22:10:58;;;;;;;14.60;6.90;;;;;;;17.09;34.50;98715.70;273292;1283;22151;-85
2023/03/12 22:17:04;;;;;;;13.40;6.40;;;;;;;17.13;34.41;98709.45;273213;1283;23079;-87
2023/03/12 22:23:09;;;;;;;15.20;6.30;;;;;;;17.16;34.45;98705.23;273224;1283;22441;-87
2023/03/12 22:29:12;;;;;;;14.40;6.10;;;;;;;17.14;34.57;98687.82;273218;1283;22135;-90
2023/03/12 22:35:15;;;;;;;10.90;5.10;;;;;;;17.15;34.23;98671.50;273172;1283;22375;-86
2023/03/12 22:41:26;;;;;;;12.10;5.10;;;;;;;16.90;34.41;98667.61;273268;1283;22135;-87
2023/03/12 22:47:29;;;;;;;12.60;5.00;;;;;;;17.26;34.08;98673.82;273317;1283;22105;-85
2023/03/12 22:53:32;;;;;;;9.70;4.70;;;;;;;17.44;33.78;98674.09;273235;1283;22269;-85
2023/03/12 22:59:37;;;;;;;10.30;4.50;;;;;;;17.49;33.82;98672.69;273263;1281;23112;-86
2023/03/12 23:05:40;;;;;;;11.70;5.30;;;;;;;17.54;33.75;98671.72;273251;1283;22168;-85
2023/03/12 23:11:43;;;;;;;9.80;4.20;;;;;;;17.34;34.08;98673.30;273266;1283;22344;-85
2023/03/12 23:17:46;;;;;;;7.70;3.80;;;;;;;17.41;34.35;98677.27;273225;1283;22343;-85
2023/03/12 23:23:49;;;;;;;6.90;3.30;;;;;;;17.45;34.65;98662.02;273224;1283;22401;-85
2023/03/12 23:37:01;;;;;;;7.50;3.20;;;;;;;17.79;35.05;98667.61;274330;1272;22336;31
2023/03/12 23:43:04;;;;;;;7.60;3.60;;;;;;;17.79;35.57;98667.83;272352;1289;22142;-88
2023/03/12 23:49:08;;;;;;;8.20;3.80;;;;;;;17.85;35.69;98659.39;272433;1289;23046;-89
2023/03/12 23:55:11;;;;;;;9.50;3.50;;;;;;;17.91;35.87;98654.81;272134;1289;22125;-91
